»·PEaware :: N9482U KSMX-KBFL

N9482U :: KSMX-KBFL

FLIGHT INFORMATION

Flight Status: Arrived
Operator: Privately registered:
United States
More flights under this callsign
Pilot: Adam S. (16832)
Aircraft: CESSNA 172 SKYHAWK
(C172)
More flights by this aircraft type
Origin: KSMX Santa Maria Pub/Capt Hancock
United States
Destination: KBFL Meadows
United States
More flights between these airports :: More routes between these airports
Route: +SMX FLW BFL
File this flight plan on PilotEdge
Remarks: CAT5
Altitude:
(Current/Filed)
7,500ft
Speed:
(Current/Filed)
88kts
Departed: 06-Oct-17 01:27 PM
Arrived: 06-Oct-17 02:33 PM
Distance/Time
Traveled:
76nm/1:06
Distance/Time
To Go:
Arrived

Flight Plot

Page will automatically refresh every two minutes.

Flight plan parsing failed; only flown route is shown


Map Options




Map Legend


Flown Route
Filed Route
Departure Airport
Arrival Airport
Navaid (VOR, NDB)
Fix

Horizontal Profiles

Position Reports

Time Latitude Longitude Heading Altitude Ground
Speed
06-Oct-17 13:24 34.892738 -120.454349 180 227ft 0kts
06-Oct-17 13:25 34.892779 -120.454244 342 227ft 0kts
06-Oct-17 13:26 34.893117 -120.453932 99 227ft 0kts
06-Oct-17 13:27 34.891731 -120.452548 90 227ft 10kts
06-Oct-17 13:28 34.891745 -120.447762 89 227ft 17kts
06-Oct-17 13:29 34.892304 -120.446418 48 227ft 0kts
06-Oct-17 13:30 34.893137 -120.446258 317 227ft 15kts
06-Oct-17 13:31 34.906109 -120.461658 317 994ft 75kts
06-Oct-17 13:32 34.919079 -120.450634 72 2092ft 76kts
06-Oct-17 13:33 34.924174 -120.425344 68 3081ft 76kts
06-Oct-17 13:42 34.891726 -120.450981 90 227ft 14kts
06-Oct-17 13:43 34.891722 -120.447515 85 227ft 4kts
06-Oct-17 13:44 34.892298 -120.446432 48 227ft 0kts
06-Oct-17 13:45 34.892300 -120.446429 48 227ft 0kts
06-Oct-17 13:46 34.892461 -120.446205 48 227ft 6kts
06-Oct-17 13:47 34.897979 -120.452185 313 405ft 73kts
06-Oct-17 13:48 34.914318 -120.463760 30 1402ft 86kts
06-Oct-17 13:49 34.927816 -120.439022 65 2376ft 87kts
06-Oct-17 13:50 34.934930 -120.412958 67 3384ft 80kts
06-Oct-17 13:51 34.941595 -120.387482 68 4316ft 78kts
06-Oct-17 13:52 34.949194 -120.362495 65 5175ft 79kts
06-Oct-17 13:53 34.955709 -120.336616 67 5981ft 80kts
06-Oct-17 13:54 34.961478 -120.310060 72 6747ft 81kts
06-Oct-17 13:55 34.966739 -120.283369 57 7458ft 81kts
06-Oct-17 13:56 34.979587 -120.255639 54 7558ft 97kts
06-Oct-17 13:57 34.996018 -120.227770 54 7600ft 100kts
06-Oct-17 13:58 35.009292 -120.197157 62 7500ft 106kts
06-Oct-17 13:59 35.021114 -120.165372 69 7529ft 98kts
06-Oct-17 14:00 35.030477 -120.133340 72 7515ft 101kts
06-Oct-17 14:01 35.036850 -120.099259 78 7433ft 105kts
06-Oct-17 14:02 35.042098 -120.065116 79 7486ft 101kts
06-Oct-17 14:03 35.045816 -120.030334 76 7473ft 104kts
06-Oct-17 14:04 35.056784 -119.997032 63 7463ft 106kts
06-Oct-17 14:05 35.068642 -119.963938 65 7489ft 104kts
06-Oct-17 14:06 35.076705 -119.928737 71 7460ft 108kts
06-Oct-17 14:07 35.086241 -119.893173 67 7383ft 110kts
06-Oct-17 14:08 35.098922 -119.860156 60 7385ft 103kts
06-Oct-17 14:09 35.112031 -119.829545 68 7456ft 103kts
06-Oct-17 14:10 35.124844 -119.797465 66 7437ft 107kts
06-Oct-17 14:11 35.136030 -119.763631 75 7408ft 106kts
06-Oct-17 14:12 35.145636 -119.730714 56 7457ft 101kts
06-Oct-17 14:13 35.160375 -119.700664 58 7445ft 112kts
06-Oct-17 14:14 35.176245 -119.666600 67 7454ft 118kts
06-Oct-17 14:15 35.188365 -119.629774 65 7491ft 116kts
06-Oct-17 14:16 35.199867 -119.592899 66 7452ft 119kts
06-Oct-17 14:17 35.211869 -119.554779 64 7381ft 117kts
06-Oct-17 14:18 35.226500 -119.520838 63 7516ft 107kts
06-Oct-17 14:19 35.242454 -119.490829 59 7496ft 104kts
06-Oct-17 14:20 35.255655 -119.462446 56 7518ft 104kts
06-Oct-17 14:21 35.268464 -119.430783 61 7509ft 101kts
06-Oct-17 14:22 35.281356 -119.400021 59 7473ft 100kts
06-Oct-17 14:23 35.295598 -119.369504 60 6826ft 103kts
06-Oct-17 14:24 35.311587 -119.339524 61 6198ft 108kts
06-Oct-17 14:25 35.325828 -119.307331 63 5555ft 105kts
06-Oct-17 14:26 35.338009 -119.277270 61 4953ft 103kts
06-Oct-17 14:27 35.351097 -119.244985 61 4230ft 109kts
06-Oct-17 14:28 35.364554 -119.211140 51 3416ft 108kts
06-Oct-17 14:29 35.386365 -119.185842 40 2633ft 109kts
06-Oct-17 14:30 35.406893 -119.158347 47 1997ft 109kts
06-Oct-17 14:31 35.423921 -119.127386 53 1556ft 104kts
06-Oct-17 14:32 35.429656 -119.095419 102 1553ft 99kts
06-Oct-17 14:33 35.412885 -119.068839 133 1522ft 97kts
06-Oct-17 14:34 35.397220 -119.045316 89 1648ft 73kts
06-Oct-17 14:35 35.410712 -119.032823 337 1286ft 65kts
06-Oct-17 14:36 35.422776 -119.046562 312 767ft 57kts
06-Oct-17 14:37 35.432400 -119.058030 316 510ft 24kts
06-Oct-17 14:38 35.434807 -119.059988 33 510ft 0kts
06-Oct-17 14:39 35.434811 -119.059985 33 510ft 0kts
06-Oct-17 14:40 35.435564 -119.059104 45 510ft 11kts
06-Oct-17 14:41 35.435874 -119.056376 137 510ft 10kts
06-Oct-17 14:42 35.432936 -119.052826 135 510ft 11kts
06-Oct-17 14:43 35.430195 -119.049525 134 510ft 8kts
06-Oct-17 14:44 35.429014 -119.046822 335 510ft 8kts
06-Oct-17 14:45 35.429808 -119.046858 135 510ft 0kts

Navigation Log

Ident Type
Flight plan parsing failed, navigation log unavailable